createdAt,value
2023-05-20T00:00:28.892Z,0.00
2023-05-20T00:01:29.998Z,0.00
2023-05-20T00:02:29.077Z,0.00
2023-05-20T00:03:28.961Z,0.00
2023-05-20T00:04:28.912Z,0.00
2023-05-20T00:05:28.871Z,0.00
2023-05-20T00:06:28.855Z,0.00
2023-05-20T00:07:28.818Z,0.00
2023-05-20T00:08:28.849Z,0.00
2023-05-20T00:09:28.839Z,0.00
2023-05-20T00:10:28.809Z,0.00
2023-05-20T00:11:28.820Z,0.00
2023-05-20T00:12:28.824Z,0.00
2023-05-20T00:13:28.787Z,0.00
2023-05-20T00:14:28.834Z,0.00
2023-05-20T00:15:28.785Z,0.00
2023-05-20T00:16:29.789Z,0.00
2023-05-20T00:17:28.820Z,0.00
2023-05-20T00:18:28.764Z,0.00
2023-05-20T00:19:28.890Z,0.00
2023-05-20T00:20:28.772Z,0.00
2023-05-20T00:21:28.748Z,0.00
2023-05-20T00:22:28.756Z,0.00
2023-05-20T00:23:28.738Z,0.00
2023-05-20T00:24:28.723Z,0.00
2023-05-20T00:25:28.731Z,0.00
2023-05-20T00:26:28.710Z,0.00
2023-05-20T00:27:28.716Z,0.00
2023-05-20T00:28:28.789Z,0.00
2023-05-20T00:29:28.717Z,0.00
2023-05-20T00:30:28.689Z,0.00
2023-05-20T00:31:28.691Z,0.00
2023-05-20T00:32:28.803Z,0.00
2023-05-20T00:33:28.687Z,0.00
2023-05-20T00:34:28.680Z,0.00
2023-05-20T00:35:28.680Z,0.00
2023-05-20T00:36:28.653Z,0.00
2023-05-20T00:37:28.694Z,0.00
2023-05-20T00:38:28.644Z,0.00
2023-05-20T00:39:28.618Z,0.00
2023-05-20T00:40:28.617Z,0.00
2023-05-20T00:41:28.595Z,0.00
2023-05-20T00:42:28.657Z,0.00
2023-05-20T00:43:28.599Z,0.00
2023-05-20T00:44:28.620Z,0.00
2023-05-20T00:45:28.600Z,0.00
2023-05-20T00:46:28.625Z,0.00
2023-05-20T00:47:28.589Z,0.00
2023-05-20T00:48:28.561Z,0.00
2023-05-20T00:49:28.559Z,0.00
2023-05-20T00:50:28.525Z,0.00
2023-05-20T00:51:28.532Z,0.00
2023-05-20T00:52:28.532Z,0.00
2023-05-20T00:53:28.517Z,0.00
2023-05-20T00:54:28.548Z,0.00
2023-05-20T00:55:28.523Z,0.00
2023-05-20T00:56:28.505Z,0.00
2023-05-20T00:57:28.539Z,0.00
2023-05-20T00:58:28.508Z,0.00
2023-05-20T00:59:28.639Z,0.00
2023-05-20T01:00:28.524Z,0.00
2023-05-20T01:01:28.538Z,0.00
2023-05-20T01:02:28.511Z,0.00
2023-05-20T01:03:28.608Z,0.00
2023-05-20T01:04:28.464Z,0.00
2023-05-20T01:05:28.474Z,0.00
2023-05-20T01:06:28.433Z,0.00
2023-05-20T01:07:28.477Z,0.00
2023-05-20T01:08:28.433Z,0.00
2023-05-20T01:09:28.402Z,0.00
2023-05-20T01:10:28.413Z,0.00
2023-05-20T01:11:28.389Z,0.00
2023-05-20T01:12:28.408Z,0.00
2023-05-20T01:13:28.391Z,0.00
2023-05-20T01:14:28.385Z,0.00
2023-05-20T01:15:28.370Z,0.00
2023-05-20T01:16:28.499Z,0.00
2023-05-20T01:17:28.397Z,0.00
2023-05-20T01:18:28.331Z,0.00
2023-05-20T01:19:28.416Z,0.00
2023-05-20T01:20:28.315Z,0.00
2023-05-20T01:21:28.315Z,0.00
2023-05-20T01:22:28.331Z,0.00
2023-05-20T01:23:28.323Z,0.00
2023-05-20T01:24:28.313Z,0.00
2023-05-20T01:25:28.320Z,0.00
2023-05-20T01:26:28.282Z,0.00
2023-05-20T01:27:28.288Z,0.00
2023-05-20T01:28:28.269Z,0.00
2023-05-20T01:29:28.268Z,0.00
2023-05-20T01:30:28.283Z,0.00
2023-05-20T01:31:29.307Z,0.00
2023-05-20T01:32:28.275Z,0.00
2023-05-20T01:33:28.252Z,0.00
2023-05-20T01:34:28.214Z,0.00
2023-05-20T01:35:28.237Z,0.00
2023-05-20T01:36:28.188Z,0.00
2023-05-20T01:37:28.200Z,0.00
2023-05-20T01:38:28.248Z,0.00
2023-05-20T01:39:28.184Z,0.00
2023-05-20T01:40:28.343Z,0.00
2023-05-20T01:41:28.163Z,0.00
2023-05-20T01:42:28.234Z,0.00
2023-05-20T01:43:28.180Z,0.00
2023-05-20T01:44:28.193Z,0.00
2023-05-20T01:45:28.155Z,0.00
2023-05-20T01:46:28.197Z,0.00
2023-05-20T01:47:28.176Z,0.00
2023-05-20T01:48:28.124Z,0.00
2023-05-20T01:49:28.109Z,0.00
2023-05-20T01:50:28.118Z,0.00
2023-05-20T01:51:28.109Z,0.00
2023-05-20T01:52:28.114Z,0.00
2023-05-20T01:53:28.092Z,0.00
2023-05-20T01:54:28.084Z,0.00
2023-05-20T01:55:28.085Z,0.00
2023-05-20T01:56:28.093Z,0.00
2023-05-20T01:57:28.113Z,0.00
2023-05-20T01:58:28.066Z,0.00
2023-05-20T01:59:28.056Z,0.00
2023-05-20T02:00:28.061Z,0.00
2023-05-20T02:01:28.220Z,0.00
2023-05-20T02:02:28.175Z,0.00
2023-05-20T02:03:28.159Z,0.00
2023-05-20T02:04:28.118Z,0.00
2023-05-20T02:05:28.073Z,0.00
2023-05-20T02:06:28.016Z,0.00
2023-05-20T02:07:27.994Z,0.00
2023-05-20T02:08:28.010Z,0.00
2023-05-20T02:09:27.973Z,0.00
2023-05-20T02:10:28.025Z,0.00
2023-05-20T02:11:29.097Z,0.00
2023-05-20T02:12:27.992Z,0.00
2023-05-20T02:13:27.981Z,0.00
2023-05-20T02:14:27.950Z,0.00
2023-05-20T02:15:27.960Z,0.00
2023-05-20T02:16:27.985Z,0.00
2023-05-20T02:17:27.971Z,0.00
2023-05-20T02:18:27.928Z,0.00
2023-05-20T02:19:28.013Z,0.00
2023-05-20T02:20:27.944Z,0.00
2023-05-20T02:21:27.898Z,0.00
2023-05-20T02:22:27.945Z,0.00
2023-05-20T02:23:27.947Z,0.00
2023-05-20T02:24:27.959Z,0.00
2023-05-20T02:25:27.922Z,0.00
2023-05-20T02:26:28.866Z,0.00
2023-05-20T02:27:27.917Z,0.00
2023-05-20T02:28:28.001Z,0.00
2023-05-20T02:29:27.968Z,0.00
2023-05-20T02:30:28.522Z,0.00
2023-05-20T02:31:27.997Z,0.00
2023-05-20T02:32:27.959Z,0.00
2023-05-20T02:33:27.881Z,0.00
2023-05-20T02:34:28.005Z,0.00
2023-05-20T02:35:27.860Z,0.00
2023-05-20T02:36:27.809Z,0.00
2023-05-20T02:37:27.815Z,0.00
2023-05-20T02:38:27.835Z,0.00
2023-05-20T02:39:27.786Z,0.00
2023-05-20T02:40:27.910Z,0.00
2023-05-20T02:41:27.781Z,0.00
2023-05-20T02:42:27.777Z,0.00
2023-05-20T02:43:27.780Z,0.00
2023-05-20T02:44:27.866Z,0.00
2023-05-20T02:45:28.473Z,0.00
2023-05-20T02:46:27.820Z,0.00
2023-05-20T02:47:27.760Z,0.00
2023-05-20T02:48:27.794Z,0.00
2023-05-20T02:49:27.707Z,0.00
2023-05-20T02:50:27.826Z,0.00
2023-05-20T02:51:28.693Z,0.00
2023-05-20T02:52:27.731Z,0.00
2023-05-20T02:53:27.725Z,0.00
2023-05-20T02:54:27.711Z,0.00
2023-05-20T02:55:27.723Z,0.00
2023-05-20T02:56:27.910Z,0.00
2023-05-20T02:57:28.561Z,0.00
2023-05-20T02:58:27.803Z,0.00
2023-05-20T02:59:27.660Z,0.00
2023-05-20T03:00:27.668Z,0.00
2023-05-20T03:01:27.659Z,0.00
2023-05-20T03:02:27.696Z,0.00
2023-05-20T03:03:27.668Z,0.00
2023-05-20T03:04:27.732Z,0.00
2023-05-20T03:05:27.623Z,0.00
2023-05-20T03:06:27.622Z,0.00
2023-05-20T03:07:27.605Z,0.00
2023-05-20T03:08:27.594Z,0.00
2023-05-20T03:09:27.591Z,0.00
2023-05-20T03:10:27.579Z,0.00
2023-05-20T03:11:27.594Z,0.00
2023-05-20T03:12:27.562Z,0.00
2023-05-20T03:13:27.582Z,0.00
2023-05-20T03:14:27.566Z,0.00
2023-05-20T03:15:27.581Z,0.00
2023-05-20T03:16:27.548Z,0.00
2023-05-20T03:17:27.544Z,0.00
2023-05-20T03:18:27.617Z,0.00
2023-05-20T03:19:27.572Z,0.00
2023-05-20T03:20:27.591Z,0.00
2023-05-20T03:21:27.529Z,0.00
2023-05-20T03:22:27.501Z,0.00
2023-05-20T03:23:27.528Z,0.00
2023-05-20T03:24:27.542Z,0.00
2023-05-20T03:25:28.558Z,0.00
2023-05-20T03:26:27.502Z,0.00
2023-05-20T03:27:27.545Z,0.00
2023-05-20T03:28:27.551Z,0.00
2023-05-20T03:29:27.512Z,0.00
2023-05-20T03:30:27.523Z,0.00
2023-05-20T03:31:27.513Z,0.00
2023-05-20T03:32:27.450Z,0.00
2023-05-20T03:33:27.410Z,0.00
2023-05-20T03:34:28.513Z,0.00
2023-05-20T03:35:27.529Z,0.00
2023-05-20T03:36:27.424Z,0.00
2023-05-20T03:37:27.432Z,0.00
2023-05-20T03:38:27.499Z,0.00
2023-05-20T03:39:27.635Z,0.00
2023-05-20T03:40:27.398Z,0.00
2023-05-20T03:41:27.384Z,0.00
2023-05-20T03:42:27.357Z,0.00
2023-05-20T03:43:27.377Z,0.00
2023-05-20T03:44:27.438Z,0.00
2023-05-20T03:45:27.428Z,0.00
2023-05-20T03:46:27.430Z,0.00
2023-05-20T03:47:27.490Z,5.62
2023-05-20T03:48:27.435Z,5.62
2023-05-20T03:49:27.324Z,5.62
2023-05-20T03:50:27.312Z,5.62
2023-05-20T03:51:27.345Z,5.62
2023-05-20T03:52:27.381Z,5.62
2023-05-20T03:53:27.378Z,5.62
2023-05-20T03:54:27.313Z,5.62
2023-05-20T03:55:27.337Z,5.62
2023-05-20T03:56:27.288Z,5.62
2023-05-20T03:57:27.311Z,5.62
2023-05-20T03:58:27.261Z,5.62
2023-05-20T03:59:27.284Z,5.62
2023-05-20T04:00:27.338Z,5.62
2023-05-20T04:01:27.275Z,11.25
2023-05-20T04:02:27.387Z,11.25
2023-05-20T04:03:27.297Z,11.25
2023-05-20T04:04:27.184Z,11.25
2023-05-20T04:05:27.207Z,11.25
2023-05-20T04:06:27.222Z,11.25
2023-05-20T04:07:27.208Z,11.25
2023-05-20T04:08:27.180Z,11.25
2023-05-20T04:09:27.181Z,11.25
2023-05-20T04:10:27.155Z,11.25
2023-05-20T04:11:27.164Z,11.25
2023-05-20T04:12:27.184Z,11.25
2023-05-20T04:13:27.141Z,11.25
2023-05-20T04:14:27.130Z,11.25
2023-05-20T04:15:27.122Z,11.25
2023-05-20T04:16:27.203Z,16.88
2023-05-20T04:17:27.154Z,16.88
2023-05-20T04:18:27.103Z,16.88
2023-05-20T04:19:27.184Z,16.88
2023-05-20T04:20:27.110Z,16.88
2023-05-20T04:21:27.095Z,16.88
2023-05-20T04:22:27.136Z,16.88
2023-05-20T04:23:27.201Z,16.88
2023-05-20T04:24:27.989Z,16.88
2023-05-20T04:25:27.050Z,16.88
2023-05-20T04:26:27.918Z,16.88
2023-05-20T04:27:27.588Z,16.88
2023-05-20T04:28:27.059Z,16.88
2023-05-20T04:29:27.071Z,16.88
2023-05-20T04:30:27.193Z,16.88
2023-05-20T04:31:27.156Z,16.88
2023-05-20T04:32:27.066Z,16.88
2023-05-20T04:33:27.003Z,16.88
2023-05-20T04:34:27.142Z,16.88
2023-05-20T04:35:27.022Z,16.88
2023-05-20T04:36:27.042Z,16.88
2023-05-20T04:37:27.052Z,16.88
2023-05-20T04:38:29.505Z,16.88
2023-05-20T04:39:28.002Z,16.88
2023-05-20T04:40:27.096Z,16.88
2023-05-20T04:41:26.971Z,16.88
2023-05-20T04:42:27.915Z,16.88
2023-05-20T04:43:26.940Z,16.88
2023-05-20T04:44:27.043Z,16.88
2023-05-20T04:45:26.920Z,16.88
2023-05-20T04:46:26.956Z,16.88
2023-05-20T04:47:26.963Z,16.88
2023-05-20T04:48:26.921Z,16.88
2023-05-20T04:49:26.936Z,16.88
2023-05-20T04:50:26.923Z,16.88
2023-05-20T04:51:26.884Z,16.88
2023-05-20T04:52:26.928Z,16.88
2023-05-20T04:53:26.886Z,16.88
2023-05-20T04:54:26.875Z,16.88
2023-05-20T04:55:26.889Z,16.88
2023-05-20T04:56:27.398Z,16.88
2023-05-20T04:57:26.852Z,16.88
2023-05-20T04:58:26.898Z,16.88
2023-05-20T04:59:26.837Z,16.88
2023-05-20T05:00:26.828Z,16.88
2023-05-20T05:01:26.909Z,16.88
2023-05-20T05:02:26.847Z,16.88
2023-05-20T05:03:26.848Z,16.88
2023-05-20T05:04:26.872Z,16.88
2023-05-20T05:05:26.805Z,16.88
2023-05-20T05:06:26.804Z,16.88
2023-05-20T05:07:26.802Z,16.88
2023-05-20T05:08:26.824Z,16.88
2023-05-20T05:09:26.754Z,16.88
2023-05-20T05:10:26.769Z,16.88
2023-05-20T05:11:26.744Z,16.88
2023-05-20T05:12:26.722Z,16.88
2023-05-20T05:13:27.758Z,16.88
2023-05-20T05:14:26.728Z,16.88
2023-05-20T05:15:26.715Z,16.88
2023-05-20T05:16:26.797Z,16.88
2023-05-20T05:17:26.824Z,16.88
2023-05-20T05:18:26.704Z,16.88
2023-05-20T05:19:26.725Z,16.88
2023-05-20T05:20:26.679Z,16.88
2023-05-20T05:21:26.702Z,22.50
2023-05-20T05:22:26.678Z,22.50
2023-05-20T05:23:26.669Z,22.50
2023-05-20T05:24:26.677Z,22.50
2023-05-20T05:25:26.642Z,22.50
2023-05-20T05:26:26.668Z,22.50
2023-05-20T05:27:26.647Z,22.50
2023-05-20T05:28:26.625Z,22.50
2023-05-20T05:29:26.640Z,22.50
2023-05-20T05:30:26.630Z,28.12
2023-05-20T05:31:26.635Z,28.12
2023-05-20T05:32:26.749Z,28.12
2023-05-20T05:33:26.624Z,28.12
2023-05-20T05:34:26.577Z,28.12
2023-05-20T05:35:26.593Z,33.75
2023-05-20T05:36:26.571Z,33.75
2023-05-20T05:37:26.558Z,33.75
2023-05-20T05:38:26.562Z,33.75
2023-05-20T05:39:26.591Z,33.75
2023-05-20T05:40:26.578Z,33.75
2023-05-20T05:41:26.519Z,33.75
2023-05-20T05:42:26.528Z,33.75
2023-05-20T05:43:26.516Z,33.75
2023-05-20T05:44:26.522Z,33.75
2023-05-20T05:45:26.525Z,39.38
2023-05-20T05:46:26.555Z,39.38
2023-05-20T05:47:26.516Z,39.38
2023-05-20T05:48:26.491Z,39.38
2023-05-20T05:49:26.482Z,39.38
2023-05-20T05:50:26.464Z,39.38
2023-05-20T05:51:26.454Z,39.38
2023-05-20T05:52:26.452Z,39.38
2023-05-20T05:53:26.454Z,45.00
2023-05-20T05:54:26.475Z,45.00
2023-05-20T05:55:26.441Z,45.00
2023-05-20T05:56:26.547Z,50.62
2023-05-20T05:57:26.430Z,50.62
2023-05-20T05:58:26.459Z,56.25
2023-05-20T05:59:26.468Z,56.25
2023-05-20T06:00:26.421Z,56.25
2023-05-20T06:01:26.450Z,56.25
2023-05-20T06:02:26.470Z,56.25
2023-05-20T06:03:26.453Z,56.25
2023-05-20T06:04:26.534Z,56.25
2023-05-20T06:05:28.304Z,61.88
2023-05-20T06:06:27.367Z,61.88
2023-05-20T06:07:26.361Z,61.88
2023-05-20T06:08:26.441Z,61.88
2023-05-20T06:09:26.347Z,56.25
2023-05-20T06:10:26.372Z,50.62
2023-05-20T06:11:26.321Z,50.62
2023-05-20T06:12:26.559Z,50.62
2023-05-20T06:13:26.330Z,50.62
2023-05-20T06:14:26.297Z,50.62
2023-05-20T06:15:26.291Z,56.25
2023-05-20T06:16:26.392Z,61.88
2023-05-20T06:17:26.336Z,61.88
2023-05-20T06:18:26.259Z,56.25
2023-05-20T06:19:26.296Z,56.25
2023-05-20T06:20:26.253Z,50.62
2023-05-20T06:21:26.243Z,50.62
2023-05-20T06:22:26.255Z,50.62
2023-05-20T06:23:26.233Z,56.25
2023-05-20T06:24:26.312Z,56.25
2023-05-20T06:25:26.220Z,56.25
2023-05-20T06:26:26.229Z,56.25
2023-05-20T06:27:26.248Z,56.25
2023-05-20T06:28:26.193Z,56.25
2023-05-20T06:29:26.182Z,56.25
2023-05-20T06:30:26.169Z,61.88
2023-05-20T06:31:26.242Z,67.50
2023-05-20T06:32:26.191Z,67.50
2023-05-20T06:33:26.219Z,61.88
2023-05-20T06:34:26.155Z,56.25
2023-05-20T06:35:26.142Z,61.88
2023-05-20T06:36:26.155Z,61.88
2023-05-20T06:37:26.186Z,61.88
2023-05-20T06:38:26.138Z,61.88
2023-05-20T06:39:26.121Z,61.88
2023-05-20T06:40:26.175Z,67.50
2023-05-20T06:41:26.120Z,67.50
2023-05-20T06:42:26.111Z,73.12
2023-05-20T06:43:26.089Z,84.38
2023-05-20T06:44:26.084Z,95.62
2023-05-20T06:45:26.101Z,101.25
2023-05-20T06:46:26.108Z,101.25
2023-05-20T06:47:26.149Z,101.25
2023-05-20T06:48:26.049Z,106.88
2023-05-20T06:49:26.054Z,118.12
2023-05-20T06:50:26.119Z,123.75
2023-05-20T06:51:26.047Z,123.75
2023-05-20T06:52:26.043Z,129.38
2023-05-20T06:53:26.034Z,129.38
2023-05-20T06:54:26.028Z,123.75
2023-05-20T06:55:26.039Z,123.75
2023-05-20T06:56:26.014Z,135.00
2023-05-20T06:57:26.035Z,140.62
2023-05-20T06:58:25.995Z,135.00
2023-05-20T06:59:26.027Z,135.00
2023-05-20T07:00:26.061Z,123.75
2023-05-20T07:01:26.002Z,118.12
2023-05-20T07:02:26.075Z,118.12
2023-05-20T07:03:26.011Z,129.38
2023-05-20T07:04:25.972Z,123.75
2023-05-20T07:05:25.972Z,129.38
2023-05-20T07:06:25.925Z,135.00
2023-05-20T07:07:25.969Z,123.75
2023-05-20T07:08:25.980Z,112.50
2023-05-20T07:09:25.951Z,112.50
2023-05-20T07:10:25.922Z,123.75
2023-05-20T07:11:25.905Z,146.25
2023-05-20T07:12:25.876Z,157.50
2023-05-20T07:13:25.933Z,163.12
2023-05-20T07:14:25.859Z,174.38
2023-05-20T07:15:25.854Z,185.62
2023-05-20T07:16:25.909Z,202.50
2023-05-20T07:17:25.882Z,208.12
2023-05-20T07:18:25.860Z,208.12
2023-05-20T07:19:25.897Z,196.88
2023-05-20T07:20:25.833Z,191.25
2023-05-20T07:21:25.829Z,185.62
2023-05-20T07:22:25.831Z,191.25
2023-05-20T07:23:25.840Z,208.12
2023-05-20T07:24:25.794Z,202.50
2023-05-20T07:25:25.792Z,180.00
2023-05-20T07:26:25.791Z,174.38
2023-05-20T07:27:25.791Z,163.12
2023-05-20T07:28:25.769Z,163.12
2023-05-20T07:29:25.777Z,168.75
2023-05-20T07:30:25.778Z,168.75
2023-05-20T07:31:25.789Z,157.50
2023-05-20T07:32:25.814Z,146.25
2023-05-20T07:33:25.753Z,146.25
2023-05-20T07:34:25.725Z,140.62
2023-05-20T07:35:25.724Z,140.62
2023-05-20T07:36:25.724Z,135.00
2023-05-20T07:37:25.724Z,135.00
2023-05-20T07:38:25.728Z,135.00
2023-05-20T07:39:25.696Z,140.62
2023-05-20T07:40:25.706Z,129.38
2023-05-20T07:41:25.696Z,118.12
2023-05-20T07:42:25.690Z,112.50
2023-05-20T07:43:25.687Z,118.12
2023-05-20T07:44:25.666Z,123.75
2023-05-20T07:45:25.671Z,135.00
2023-05-20T07:46:25.773Z,146.25
2023-05-20T07:47:25.681Z,146.25
2023-05-20T07:48:26.379Z,157.50
2023-05-20T07:49:25.623Z,180.00
2023-05-20T07:50:25.644Z,185.62
2023-05-20T07:51:25.640Z,168.75
2023-05-20T07:52:25.615Z,163.12
2023-05-20T07:53:25.592Z,174.38
2023-05-20T07:54:25.604Z,163.12
2023-05-20T07:55:25.606Z,163.12
2023-05-20T07:56:25.583Z,168.75
2023-05-20T07:57:25.584Z,174.38
2023-05-20T07:58:25.589Z,168.75
2023-05-20T07:59:25.564Z,168.75
2023-05-20T08:00:25.575Z,180.00
2023-05-20T08:01:25.548Z,191.25
2023-05-20T08:02:25.733Z,185.62
2023-05-20T08:03:25.630Z,174.38
2023-05-20T08:04:25.572Z,185.62
2023-05-20T08:05:25.555Z,196.88
2023-05-20T08:06:27.305Z,174.38
2023-05-20T08:07:25.511Z,157.50
2023-05-20T08:08:25.510Z,157.50
2023-05-20T08:09:25.509Z,163.12
2023-05-20T08:10:25.495Z,168.75
2023-05-20T08:11:25.520Z,168.75
2023-05-20T08:12:25.507Z,163.12
2023-05-20T08:13:25.512Z,151.88
2023-05-20T08:14:25.500Z,146.25
2023-05-20T08:15:25.561Z,129.38
2023-05-20T08:16:25.445Z,118.12
2023-05-20T08:17:25.491Z,118.12
2023-05-20T08:18:25.448Z,118.12
2023-05-20T08:19:25.482Z,123.75
2023-05-20T08:20:25.562Z,123.75
2023-05-20T08:21:25.416Z,123.75
2023-05-20T08:22:25.412Z,135.00
2023-05-20T08:23:25.441Z,146.25
2023-05-20T08:24:25.429Z,163.12
2023-05-20T08:25:25.387Z,174.38
2023-05-20T08:26:25.885Z,196.88
2023-05-20T08:27:25.401Z,208.12
2023-05-20T08:28:25.410Z,213.75
2023-05-20T08:29:25.354Z,225.00
2023-05-20T08:30:25.357Z,213.75
2023-05-20T08:31:25.383Z,180.00
2023-05-20T08:32:25.411Z,168.75
2023-05-20T08:33:25.376Z,174.38
2023-05-20T08:34:25.329Z,191.25
2023-05-20T08:35:25.320Z,191.25
2023-05-20T08:36:25.335Z,180.00
2023-05-20T08:37:26.337Z,185.62
2023-05-20T08:38:25.304Z,185.62
2023-05-20T08:39:25.430Z,191.25
2023-05-20T08:40:25.284Z,196.88
2023-05-20T08:41:25.299Z,174.38
2023-05-20T08:42:25.446Z,151.88
2023-05-20T08:43:25.395Z,146.25
2023-05-20T08:44:25.250Z,146.25
2023-05-20T08:45:25.241Z,151.88
2023-05-20T08:46:25.324Z,163.12
2023-05-20T08:47:25.265Z,168.75
2023-05-20T08:48:25.217Z,163.12
2023-05-20T08:49:25.208Z,157.50
2023-05-20T08:50:25.233Z,168.75
2023-05-20T08:51:25.257Z,174.38
2023-05-20T08:52:25.202Z,168.75
2023-05-20T08:53:25.203Z,174.38
2023-05-20T08:54:25.188Z,163.12
2023-05-20T08:55:25.791Z,151.88
2023-05-20T08:56:25.174Z,168.75
2023-05-20T08:57:25.172Z,185.62
2023-05-20T08:58:25.176Z,196.88
2023-05-20T08:59:25.173Z,213.75
2023-05-20T09:00:25.172Z,213.75
2023-05-20T09:01:25.199Z,225.00
2023-05-20T09:02:25.163Z,219.38
2023-05-20T09:03:25.128Z,213.75
2023-05-20T09:04:25.155Z,236.25
2023-05-20T09:05:25.151Z,230.62
2023-05-20T09:06:25.113Z,236.25
2023-05-20T09:07:25.090Z,230.62
2023-05-20T09:08:25.082Z,230.62
2023-05-20T09:09:25.102Z,247.50
2023-05-20T09:10:25.075Z,253.12
2023-05-20T09:11:25.069Z,253.12
2023-05-20T09:12:25.060Z,236.25
2023-05-20T09:13:25.057Z,236.25
2023-05-20T09:14:25.059Z,236.25
2023-05-20T09:15:25.301Z,241.88
2023-05-20T09:16:25.096Z,253.12
2023-05-20T09:17:25.115Z,253.12
2023-05-20T09:18:25.041Z,253.12
2023-05-20T09:19:25.134Z,247.50
2023-05-20T09:20:25.014Z,236.25
2023-05-20T09:21:25.006Z,225.00
2023-05-20T09:22:25.004Z,241.88
2023-05-20T09:23:24.995Z,247.50
2023-05-20T09:24:24.996Z,241.88
2023-05-20T09:25:25.008Z,208.12
2023-05-20T09:26:24.956Z,202.50
2023-05-20T09:27:24.962Z,213.75
2023-05-20T09:28:25.020Z,225.00
2023-05-20T09:29:24.969Z,230.62
2023-05-20T09:30:24.956Z,225.00
2023-05-20T09:31:24.941Z,230.62
2023-05-20T09:32:24.992Z,230.62
2023-05-20T09:33:24.934Z,247.50
2023-05-20T09:34:24.917Z,253.12
2023-05-20T09:35:24.987Z,247.50
2023-05-20T09:36:24.901Z,253.12
2023-05-20T09:37:24.908Z,270.00
2023-05-20T09:38:24.878Z,258.75
2023-05-20T09:39:24.869Z,258.75
2023-05-20T09:40:24.893Z,258.75
2023-05-20T09:41:24.852Z,253.12
2023-05-20T09:42:24.878Z,241.88
2023-05-20T09:43:24.878Z,241.88
2023-05-20T09:44:24.848Z,258.75
2023-05-20T09:45:24.865Z,270.00
2023-05-20T09:46:24.949Z,247.50
2023-05-20T09:47:24.827Z,236.25
2023-05-20T09:48:24.855Z,219.38
2023-05-20T09:49:24.814Z,208.12
2023-05-20T09:50:24.817Z,208.12
2023-05-20T09:51:24.853Z,208.12
2023-05-20T09:52:24.800Z,213.75
2023-05-20T09:53:24.775Z,236.25
2023-05-20T09:54:24.803Z,225.00
2023-05-20T09:55:24.780Z,202.50
2023-05-20T09:56:25.417Z,196.88
2023-05-20T09:57:24.757Z,208.12
2023-05-20T09:58:24.759Z,208.12
2023-05-20T09:59:24.735Z,230.62
2023-05-20T10:00:24.802Z,253.12
2023-05-20T10:01:24.818Z,225.00
2023-05-20T10:02:24.760Z,219.38
2023-05-20T10:03:24.805Z,253.12
2023-05-20T10:04:24.714Z,315.00
2023-05-20T10:05:24.736Z,315.00
2023-05-20T10:06:24.893Z,286.88
2023-05-20T10:07:34.270Z,292.50
2023-05-20T10:08:26.712Z,281.25
2023-05-20T10:09:24.731Z,247.50
2023-05-20T10:10:24.741Z,241.88
2023-05-20T10:11:24.681Z,270.00
2023-05-20T10:12:24.675Z,253.12
2023-05-20T10:13:24.946Z,236.25
2023-05-20T10:14:24.710Z,253.12
2023-05-20T10:15:24.927Z,264.38
2023-05-20T10:16:24.731Z,258.75
2023-05-20T10:17:24.733Z,241.88
2023-05-20T10:18:24.735Z,247.50
2023-05-20T10:19:24.938Z,270.00
2023-05-20T10:20:24.712Z,258.75
2023-05-20T10:21:25.349Z,247.50
2023-05-20T10:22:24.668Z,241.88
2023-05-20T10:23:24.659Z,219.38
2023-05-20T10:24:24.912Z,196.88
2023-05-20T10:25:25.391Z,208.12
2023-05-20T10:26:24.748Z,225.00
2023-05-20T10:27:24.800Z,213.75
2023-05-20T10:28:24.846Z,185.62
2023-05-20T10:29:24.751Z,168.75
2023-05-20T10:30:24.769Z,163.12
2023-05-20T10:31:24.647Z,163.12
2023-05-20T10:32:24.690Z,191.25
2023-05-20T10:33:24.940Z,213.75
2023-05-20T10:34:25.389Z,241.88
2023-05-20T10:35:24.702Z,258.75
2023-05-20T10:36:24.606Z,270.00
2023-05-20T10:37:24.666Z,258.75
2023-05-20T10:38:24.621Z,270.00
2023-05-20T10:39:24.607Z,292.50
2023-05-20T10:40:24.646Z,303.75
2023-05-20T10:41:24.629Z,303.75
2023-05-20T10:42:24.813Z,286.88
2023-05-20T10:43:24.902Z,281.25
2023-05-20T10:44:25.339Z,275.62
2023-05-20T10:45:24.742Z,258.75
2023-05-20T10:46:34.009Z,264.38
2023-05-20T10:47:26.767Z,281.25
2023-05-20T10:48:25.462Z,298.12
2023-05-20T10:49:27.439Z,292.50
2023-05-20T10:50:25.387Z,286.88
2023-05-20T10:51:24.560Z,275.62
2023-05-20T10:52:24.515Z,281.25
2023-05-20T10:53:33.523Z,281.25
2023-05-20T10:54:26.362Z,275.62
2023-05-20T10:55:24.363Z,264.38
2023-05-20T10:56:24.351Z,253.12
2023-05-20T10:57:24.383Z,236.25
2023-05-20T10:58:24.327Z,219.38
2023-05-20T10:59:24.321Z,208.12
2023-05-20T11:00:24.295Z,213.75
2023-05-20T11:01:24.314Z,219.38
2023-05-20T11:02:25.318Z,236.25
2023-05-20T11:03:24.358Z,258.75
2023-05-20T11:04:24.291Z,270.00
2023-05-20T11:05:24.396Z,253.12
2023-05-20T11:06:24.305Z,230.62
2023-05-20T11:07:24.277Z,202.50
2023-05-20T11:08:28.472Z,191.25
2023-05-20T11:09:26.277Z,191.25
2023-05-20T11:10:24.273Z,174.38
2023-05-20T11:11:24.295Z,163.12
2023-05-20T11:12:24.237Z,157.50
2023-05-20T11:13:24.284Z,168.75
2023-05-20T11:14:24.209Z,174.38
2023-05-20T11:15:24.275Z,180.00
2023-05-20T11:16:24.313Z,180.00
2023-05-20T11:17:24.195Z,180.00
2023-05-20T11:18:24.195Z,196.88
2023-05-20T11:19:24.240Z,225.00
2023-05-20T11:20:24.382Z,225.00
2023-05-20T11:21:24.176Z,219.38
2023-05-20T11:22:24.193Z,208.12
2023-05-20T11:23:24.156Z,213.75
2023-05-20T11:24:24.185Z,191.25
2023-05-20T11:25:24.166Z,174.38
2023-05-20T11:26:24.155Z,168.75
2023-05-20T11:27:24.128Z,174.38
2023-05-20T11:28:24.155Z,180.00
2023-05-20T11:29:24.129Z,174.38
2023-05-20T11:30:24.113Z,157.50
2023-05-20T11:31:24.097Z,157.50
2023-05-20T11:32:24.122Z,168.75
2023-05-20T11:33:24.102Z,174.38
2023-05-20T11:34:26.386Z,163.12
2023-05-20T11:35:25.069Z,146.25
2023-05-20T11:36:27.991Z,146.25
2023-05-20T11:37:25.072Z,146.25
2023-05-20T11:38:24.054Z,151.88
2023-05-20T11:39:24.058Z,151.88
2023-05-20T11:40:24.068Z,151.88
2023-05-20T11:41:24.034Z,157.50
2023-05-20T11:42:24.025Z,151.88
2023-05-20T11:43:24.035Z,151.88
2023-05-20T11:44:24.001Z,140.62
2023-05-20T11:45:24.000Z,135.00
2023-05-20T11:46:23.997Z,135.00
2023-05-20T11:47:23.966Z,129.38
2023-05-20T11:48:24.059Z,129.38
2023-05-20T11:49:23.965Z,123.75
2023-05-20T11:50:23.960Z,123.75
2023-05-20T11:51:23.947Z,123.75
2023-05-20T11:52:23.960Z,123.75
2023-05-20T11:53:23.991Z,129.38
2023-05-20T11:54:23.953Z,129.38
2023-05-20T11:55:23.936Z,129.38
2023-05-20T11:56:23.935Z,118.12
2023-05-20T11:57:23.949Z,118.12
2023-05-20T11:58:23.919Z,118.12
2023-05-20T11:59:23.929Z,123.75
2023-05-20T12:00:23.923Z,129.38
2023-05-20T12:01:24.264Z,129.38
2023-05-20T12:02:23.947Z,140.62
2023-05-20T12:03:23.964Z,135.00
2023-05-20T12:04:23.886Z,140.62
2023-05-20T12:05:23.867Z,146.25
2023-05-20T12:06:23.864Z,157.50
2023-05-20T12:07:23.866Z,168.75
2023-05-20T12:08:23.880Z,174.38
2023-05-20T12:09:23.833Z,174.38
2023-05-20T12:10:23.829Z,157.50
2023-05-20T12:11:23.837Z,140.62
2023-05-20T12:12:23.821Z,129.38
2023-05-20T12:13:23.838Z,129.38
2023-05-20T12:14:23.797Z,135.00
2023-05-20T12:15:23.794Z,135.00
2023-05-20T12:16:23.823Z,135.00
2023-05-20T12:17:23.820Z,129.38
2023-05-20T12:18:23.768Z,135.00
2023-05-20T12:19:23.802Z,146.25
2023-05-20T12:20:23.790Z,151.88
2023-05-20T12:21:23.813Z,157.50
2023-05-20T12:22:23.745Z,163.12
2023-05-20T12:23:23.747Z,168.75
2023-05-20T12:24:23.757Z,174.38
2023-05-20T12:25:23.756Z,174.38
2023-05-20T12:26:23.742Z,180.00
2023-05-20T12:27:23.748Z,185.62
2023-05-20T12:28:23.742Z,180.00
2023-05-20T12:29:23.733Z,168.75
2023-05-20T12:30:23.710Z,163.12
2023-05-20T12:31:23.833Z,163.12
2023-05-20T12:32:23.729Z,163.12
2023-05-20T12:33:23.701Z,163.12
2023-05-20T12:34:23.668Z,157.50
2023-05-20T12:35:23.687Z,151.88
2023-05-20T12:36:23.697Z,146.25
2023-05-20T12:37:24.656Z,146.25
2023-05-20T12:38:23.658Z,140.62
2023-05-20T12:39:23.619Z,135.00
2023-05-20T12:40:23.636Z,140.62
2023-05-20T12:41:23.630Z,146.25
2023-05-20T12:42:23.626Z,151.88
2023-05-20T12:43:23.618Z,157.50
2023-05-20T12:44:23.622Z,163.12
2023-05-20T12:45:23.582Z,163.12
2023-05-20T12:46:23.629Z,163.12
2023-05-20T12:47:23.582Z,168.75
2023-05-20T12:48:23.714Z,174.38